createdAt,value
2018-12-17T00:00:45.253Z,85.10
2018-12-17T00:05:52.349Z,85.50
2018-12-17T00:10:58.859Z,86.40
2018-12-17T00:16:03.848Z,85.70
2018-12-17T00:21:08.720Z,85.10
2018-12-17T00:26:13.735Z,85.30
2018-12-17T00:31:18.516Z,86.20
2018-12-17T00:36:23.544Z,86.50
2018-12-17T00:41:29.603Z,86.40
2018-12-17T00:46:34.370Z,86.10
2018-12-17T00:51:39.195Z,85.80
2018-12-17T00:56:44.091Z,86.10
2018-12-17T01:01:49.755Z,86.30
2018-12-17T01:06:54.475Z,86.60
2018-12-17T01:11:59.530Z,87.30
2018-12-17T01:17:04.088Z,87.70
2018-12-17T01:22:08.704Z,87.60
2018-12-17T01:27:13.759Z,87.10
2018-12-17T01:32:18.707Z,87.40
2018-12-17T01:37:23.745Z,88.50
2018-12-17T01:42:28.684Z,88.50
2018-12-17T01:47:33.605Z,88.00
2018-12-17T01:52:38.473Z,88.50
2018-12-17T01:57:43.360Z,88.00
2018-12-17T02:02:48.374Z,88.40
2018-12-17T02:07:53.705Z,88.50
2018-12-17T02:12:58.578Z,89.00
2018-12-17T02:18:03.508Z,89.20
2018-12-17T02:23:08.366Z,89.30
2018-12-17T02:28:13.238Z,89.20
2018-12-17T02:33:18.267Z,89.30
2018-12-17T02:38:23.239Z,89.10
2018-12-17T02:43:28.166Z,89.60
2018-12-17T02:48:33.120Z,90.00
2018-12-17T02:53:38.073Z,90.10
2018-12-17T02:58:44.115Z,90.30
2018-12-17T03:03:49.388Z,90.20
2018-12-17T03:08:54.363Z,90.30
2018-12-17T03:13:59.263Z,90.50
2018-12-17T03:19:04.122Z,90.50
2018-12-17T03:24:09.017Z,90.60
2018-12-17T03:29:14.009Z,90.60
2018-12-17T03:34:18.868Z,91.00
2018-12-17T03:39:23.837Z,91.00
2018-12-17T03:44:28.669Z,91.00
2018-12-17T03:49:33.505Z,91.10
2018-12-17T03:54:38.467Z,91.10
2018-12-17T03:59:43.411Z,91.30
2018-12-17T04:04:48.708Z,91.40
2018-12-17T04:09:53.757Z,91.60
2018-12-17T04:14:58.649Z,91.40
2018-12-17T04:20:03.425Z,91.30
2018-12-17T04:25:08.347Z,91.80
2018-12-17T04:30:13.288Z,91.90
2018-12-17T04:35:18.153Z,92.00
2018-12-17T04:40:23.013Z,92.10
2018-12-17T04:45:28.032Z,92.10
2018-12-17T04:50:33.055Z,92.40
2018-12-17T04:55:38.048Z,92.50
2018-12-17T05:00:42.993Z,92.30
2018-12-17T05:05:47.939Z,92.40
2018-12-17T05:10:52.879Z,92.50
2018-12-17T05:15:57.796Z,92.60
2018-12-17T05:21:02.664Z,92.90
2018-12-17T05:26:07.416Z,92.90
2018-12-17T05:31:12.458Z,93.00
2018-12-17T05:36:17.416Z,93.10
2018-12-17T05:41:22.182Z,92.70
2018-12-17T05:46:27.075Z,92.80
2018-12-17T05:51:32.070Z,92.80
2018-12-17T05:56:36.926Z,92.70
2018-12-17T06:01:41.820Z,92.70
2018-12-17T06:06:46.672Z,92.90
2018-12-17T06:11:51.572Z,92.90
2018-12-17T06:16:57.329Z,92.90
2018-12-17T06:22:02.361Z,92.80
2018-12-17T06:27:07.298Z,92.90
2018-12-17T06:32:12.230Z,92.50
2018-12-17T06:37:17.091Z,92.50
2018-12-17T06:42:21.960Z,92.30
2018-12-17T06:47:26.877Z,92.30
2018-12-17T06:52:31.768Z,92.40
2018-12-17T06:57:37.719Z,92.40
2018-12-17T07:02:42.568Z,92.20
2018-12-17T07:07:47.533Z,92.30
2018-12-17T07:12:52.442Z,92.00
2018-12-17T07:17:57.224Z,92.20
2018-12-17T07:23:02.365Z,92.10
2018-12-17T07:28:07.283Z,91.70
2018-12-17T07:33:12.067Z,91.70
2018-12-17T07:38:16.868Z,91.90
2018-12-17T07:43:21.619Z,91.70
2018-12-17T07:48:26.488Z,91.50
2018-12-17T07:53:31.404Z,91.60
2018-12-17T07:58:36.052Z,91.70
2018-12-17T08:03:41.012Z,91.60
2018-12-17T08:08:45.856Z,91.30
2018-12-17T08:13:50.713Z,91.20
2018-12-17T08:18:55.651Z,91.30
2018-12-17T08:24:00.605Z,90.70
2018-12-17T08:29:05.540Z,90.60
2018-12-17T08:34:10.401Z,90.40
2018-12-17T08:39:15.355Z,90.40
2018-12-17T08:44:20.385Z,90.30
2018-12-17T08:49:25.157Z,90.00
2018-12-17T08:54:30.052Z,90.10
2018-12-17T08:59:34.910Z,89.20
2018-12-17T09:04:39.662Z,89.40
2018-12-17T09:09:44.615Z,88.90
2018-12-17T09:14:49.553Z,88.60
2018-12-17T09:19:54.382Z,89.10
2018-12-17T09:24:59.283Z,89.50
2018-12-17T09:30:04.823Z,88.60
2018-12-17T09:35:09.897Z,89.50
2018-12-17T09:40:14.825Z,88.30
2018-12-17T09:45:19.652Z,87.50
2018-12-17T09:50:24.624Z,88.30
2018-12-17T09:55:29.456Z,87.00
2018-12-17T10:00:34.303Z,86.70
2018-12-17T10:05:39.257Z,87.80
2018-12-17T10:10:44.099Z,87.20
2018-12-17T10:15:48.936Z,86.90
2018-12-17T10:20:53.816Z,87.70
2018-12-17T10:25:58.632Z,87.00
2018-12-17T10:31:03.571Z,87.80
2018-12-17T10:36:08.467Z,86.40
2018-12-17T10:41:13.290Z,85.60
2018-12-17T10:46:20.271Z,85.40
2018-12-17T10:51:25.109Z,83.70
2018-12-17T10:56:30.041Z,83.40
2018-12-17T11:01:39.968Z,81.60
2018-12-17T11:06:45.194Z,81.60
2018-12-17T11:11:50.129Z,80.40
2018-12-17T11:16:55.087Z,79.80
2018-12-17T11:21:59.939Z,81.30
2018-12-17T11:27:04.885Z,80.90
2018-12-17T11:32:11.706Z,81.40
2018-12-17T11:37:16.696Z,80.70
2018-12-17T11:42:21.648Z,80.90
2018-12-17T11:47:26.500Z,81.60
2018-12-17T11:52:31.455Z,80.80
2018-12-17T11:57:50.093Z,81.10
2018-12-17T12:02:59.218Z,79.80
2018-12-17T12:08:03.927Z,80.60
2018-12-17T12:13:08.749Z,80.70
2018-12-17T12:18:13.656Z,78.80
2018-12-17T12:23:18.522Z,77.70
2018-12-17T12:28:23.289Z,77.60
2018-12-17T12:33:28.329Z,76.80
2018-12-17T12:38:33.267Z,77.10
2018-12-17T12:43:38.212Z,77.40
2018-12-17T12:48:43.084Z,77.80
2018-12-17T12:53:47.943Z,78.10
2018-12-17T12:58:52.986Z,79.10
2018-12-17T13:03:57.840Z,80.70
2018-12-17T13:09:03.124Z,81.30
2018-12-17T13:14:08.144Z,81.90
2018-12-17T13:19:13.111Z,83.20
2018-12-17T13:24:18.228Z,84.60
2018-12-17T13:29:22.952Z,84.20
2018-12-17T13:34:27.716Z,85.50
2018-12-17T13:39:32.666Z,85.40
2018-12-17T13:44:37.500Z,86.10
2018-12-17T13:49:42.437Z,86.80
2018-12-17T13:54:47.545Z,87.00
2018-12-17T13:59:52.449Z,87.80
2018-12-17T14:04:57.314Z,87.10
2018-12-17T14:10:07.264Z,88.00
2018-12-17T14:15:12.108Z,88.20
2018-12-17T14:20:22.160Z,88.10
2018-12-17T14:25:27.040Z,88.40
2018-12-17T14:30:31.861Z,87.80
2018-12-17T14:35:36.632Z,88.60
2018-12-17T14:40:41.572Z,89.20
2018-12-17T14:45:46.393Z,90.20
2018-12-17T14:50:51.160Z,90.30
2018-12-17T14:55:56.211Z,90.10
2018-12-17T15:01:01.079Z,90.50
2018-12-17T15:06:05.884Z,90.50
2018-12-17T15:11:10.753Z,90.80
2018-12-17T15:16:15.766Z,90.60
2018-12-17T15:21:20.651Z,90.70
2018-12-17T15:26:25.653Z,90.90
2018-12-17T15:31:30.639Z,91.00
2018-12-17T15:36:35.495Z,90.80
2018-12-17T15:41:40.328Z,90.80
2018-12-17T15:46:45.251Z,90.90
2018-12-17T15:51:50.215Z,91.20
2018-12-17T15:56:54.954Z,91.40
2018-12-17T16:01:59.938Z,91.50
2018-12-17T16:07:04.874Z,91.40
2018-12-17T16:12:09.819Z,91.40
2018-12-17T16:17:14.861Z,91.40
2018-12-17T16:22:19.734Z,91.50
2018-12-17T16:27:24.879Z,91.50
2018-12-17T16:32:29.839Z,91.40
2018-12-17T16:37:34.731Z,91.60
2018-12-17T16:42:39.605Z,91.70
2018-12-17T16:47:44.575Z,91.80
2018-12-17T16:52:49.595Z,91.80
2018-12-17T16:57:54.579Z,91.90
2018-12-17T17:02:59.414Z,91.90
2018-12-17T17:08:04.467Z,92.30
2018-12-17T17:13:09.335Z,92.20
2018-12-17T17:18:14.232Z,92.20
2018-12-17T17:23:19.116Z,92.40
2018-12-17T17:28:24.450Z,92.60
2018-12-17T17:33:29.281Z,92.60
2018-12-17T17:38:34.240Z,92.40
2018-12-17T17:43:39.087Z,92.10
2018-12-17T17:48:44.136Z,92.30
2018-12-17T17:53:48.988Z,92.80
2018-12-17T17:58:54.145Z,92.60
2018-12-17T18:03:59.184Z,92.40
2018-12-17T18:09:06.075Z,92.20
2018-12-17T18:14:12.295Z,91.90
2018-12-17T18:19:17.207Z,92.20
2018-12-17T18:24:22.379Z,92.50
2018-12-17T18:29:27.409Z,92.60
2018-12-17T18:34:32.785Z,92.60
2018-12-17T18:39:37.848Z,92.70
2018-12-17T18:44:42.671Z,92.50
2018-12-17T18:49:47.608Z,92.60
2018-12-17T18:54:52.465Z,92.60
2018-12-17T18:59:58.438Z,92.50
2018-12-17T19:05:03.568Z,92.40
2018-12-17T19:10:08.604Z,92.50
2018-12-17T19:15:13.577Z,92.50
2018-12-17T19:20:18.332Z,92.50
2018-12-17T19:25:23.254Z,92.60
2018-12-17T19:30:28.119Z,92.70
2018-12-17T19:35:33.094Z,92.60
2018-12-17T19:40:38.022Z,92.80
2018-12-17T19:45:43.050Z,93.00
2018-12-17T19:50:48.124Z,93.10
2018-12-17T19:55:53.040Z,93.00
2018-12-17T20:00:57.873Z,93.30
2018-12-17T20:06:02.978Z,93.20
2018-12-17T20:11:08.021Z,93.30
2018-12-17T20:16:13.145Z,93.30
2018-12-17T20:21:18.091Z,93.10
2018-12-17T20:26:23.036Z,93.30
2018-12-17T20:31:28.010Z,93.30
2018-12-17T20:36:33.009Z,93.10
2018-12-17T20:41:37.903Z,93.30
2018-12-17T20:46:42.836Z,93.30
2018-12-17T20:51:47.777Z,93.20
2018-12-17T20:56:52.644Z,93.10
2018-12-17T21:01:57.714Z,93.20
2018-12-17T21:07:02.740Z,93.20
2018-12-17T21:12:07.681Z,93.00
2018-12-17T21:17:12.718Z,93.30
2018-12-17T21:22:17.556Z,93.50
2018-12-17T21:27:22.405Z,93.50
2018-12-17T21:32:27.468Z,93.30
2018-12-17T21:37:32.286Z,93.40
2018-12-17T21:42:37.962Z,93.00
2018-12-17T21:47:42.944Z,92.90
2018-12-17T21:52:47.768Z,92.90
2018-12-17T21:57:52.722Z,92.30
2018-12-17T22:02:57.644Z,92.30
2018-12-17T22:08:02.399Z,92.50
2018-12-17T22:13:08.270Z,93.10
2018-12-17T22:18:13.134Z,93.50
2018-12-17T22:23:17.882Z,92.90
2018-12-17T22:28:22.920Z,93.40
2018-12-17T22:33:27.850Z,93.50
2018-12-17T22:38:32.816Z,93.30
2018-12-17T22:43:37.679Z,93.50
2018-12-17T22:48:42.511Z,93.50
2018-12-17T22:53:47.439Z,93.30
2018-12-17T22:58:52.197Z,93.40
2018-12-17T23:03:57.133Z,93.10
2018-12-17T23:09:07.282Z,92.90
2018-12-17T23:14:25.337Z,93.10
2018-12-17T23:19:28.951Z,93.30
2018-12-17T23:24:36.631Z,93.20
2018-12-17T23:29:41.658Z,93.30
2018-12-17T23:34:46.581Z,93.10
2018-12-17T23:39:51.690Z,93.30
2018-12-17T23:44:57.103Z,93.30
2018-12-17T23:50:02.053Z,93.30
2018-12-17T23:55:06.976Z,93.80
